UDPOV weather

Campo di Volo Always
Povoletto (UD), Friuli-Venezia Giulia, Italy

Public forecast

Using degrees Celsius for public forecast. Weather courtesy of forecast.io.

Closest aviation weather report (METAR) to Campo di Volo Always

Closest report is Rivolto Air Base, 13.3 nm (24.7 km) SW. Retrieved 2020/01/29 13:55 UTC (26 minutes ago):

LIPI 291355Z 09003KT 8000 FEW020 11/04 Q1009 RMK FEW VIS MIN 6000S WIND THR06 12004KT WIND THR24 12003KT WHT

Closest aviation forecast (TAF) to Campo di Volo Always

Forecast is more than 12 hours old.

Closest forecast is Rivolto Air Base, 13.3 nm (24.7 km) SW. Retrieved 2020/01/23 12:24 UTC (6 days ago):

TAF TAF LIPI 231100Z 2312/2324 06010KT CAVOK